sensor_id;sensor_type;location;lat;lon;timestamp;P1;durP1;ratioP1;P2;durP2;ratioP2
33170;SDS011;19535;50.672;4.206;2023-12-20T00:01:58;8.73;;;7.70;;
33170;SDS011;19535;50.672;4.206;2023-12-20T00:04:25;8.30;;;7.28;;
33170;SDS011;19535;50.672;4.206;2023-12-20T00:06:52;9.70;;;8.27;;
33170;SDS011;19535;50.672;4.206;2023-12-20T00:09:19;8.52;;;7.72;;
33170;SDS011;19535;50.672;4.206;2023-12-20T00:11:45;8.48;;;7.30;;
33170;SDS011;19535;50.672;4.206;2023-12-20T00:14:12;7.45;;;6.75;;
33170;SDS011;19535;50.672;4.206;2023-12-20T00:16:39;7.97;;;7.18;;
33170;SDS011;19535;50.672;4.206;2023-12-20T00:19:06;8.10;;;7.22;;
33170;SDS011;19535;50.672;4.206;2023-12-20T00:21:34;9.13;;;6.82;;
33170;SDS011;19535;50.672;4.206;2023-12-20T00:24:01;7.47;;;6.60;;
33170;SDS011;19535;50.672;4.206;2023-12-20T00:26:28;8.25;;;6.80;;
33170;SDS011;19535;50.672;4.206;2023-12-20T00:28:55;7.47;;;6.70;;
33170;SDS011;19535;50.672;4.206;2023-12-20T00:31:21;6.93;;;6.22;;
33170;SDS011;19535;50.672;4.206;2023-12-20T00:33:48;7.70;;;6.03;;
33170;SDS011;19535;50.672;4.206;2023-12-20T00:36:15;6.70;;;5.95;;
33170;SDS011;19535;50.672;4.206;2023-12-20T00:38:42;6.80;;;6.10;;
33170;SDS011;19535;50.672;4.206;2023-12-20T00:41:09;6.63;;;5.28;;
33170;SDS011;19535;50.672;4.206;2023-12-20T00:43:36;8.05;;;6.40;;
33170;SDS011;19535;50.672;4.206;2023-12-20T00:46:03;6.72;;;6.03;;
33170;SDS011;19535;50.672;4.206;2023-12-20T00:48:30;7.00;;;6.30;;
33170;SDS011;19535;50.672;4.206;2023-12-20T00:50:57;6.80;;;6.00;;
33170;SDS011;19535;50.672;4.206;2023-12-20T00:53:24;6.78;;;5.90;;
33170;SDS011;19535;50.672;4.206;2023-12-20T00:55:51;5.97;;;5.30;;
33170;SDS011;19535;50.672;4.206;2023-12-20T00:58:18;6.65;;;5.68;;
33170;SDS011;19535;50.672;4.206;2023-12-20T01:00:45;6.22;;;5.63;;
33170;SDS011;19535;50.672;4.206;2023-12-20T01:03:12;5.78;;;5.28;;
33170;SDS011;19535;50.672;4.206;2023-12-20T01:05:40;6.90;;;6.20;;
33170;SDS011;19535;50.672;4.206;2023-12-20T01:08:06;6.00;;;5.22;;
33170;SDS011;19535;50.672;4.206;2023-12-20T01:10:33;5.68;;;5.03;;
33170;SDS011;19535;50.672;4.206;2023-12-20T01:13:00;5.68;;;5.13;;
33170;SDS011;19535;50.672;4.206;2023-12-20T01:15:27;6.63;;;5.32;;
33170;SDS011;19535;50.672;4.206;2023-12-20T01:17:54;5.43;;;4.93;;
33170;SDS011;19535;50.672;4.206;2023-12-20T01:20:23;5.47;;;4.38;;
33170;SDS011;19535;50.672;4.206;2023-12-20T01:22:50;5.63;;;4.70;;
33170;SDS011;19535;50.672;4.206;2023-12-20T01:25:16;4.80;;;4.25;;
33170;SDS011;19535;50.672;4.206;2023-12-20T01:27:44;6.25;;;4.70;;
33170;SDS011;19535;50.672;4.206;2023-12-20T01:30:11;5.40;;;4.88;;
33170;SDS011;19535;50.672;4.206;2023-12-20T01:32:38;4.97;;;4.40;;
33170;SDS011;19535;50.672;4.206;2023-12-20T01:35:05;5.00;;;4.40;;
33170;SDS011;19535;50.672;4.206;2023-12-20T01:37:33;4.93;;;4.35;;
33170;SDS011;19535;50.672;4.206;2023-12-20T01:40:00;4.70;;;4.25;;
33170;SDS011;19535;50.672;4.206;2023-12-20T01:42:27;4.90;;;4.35;;
33170;SDS011;19535;50.672;4.206;2023-12-20T01:44:53;5.25;;;4.05;;
33170;SDS011;19535;50.672;4.206;2023-12-20T01:47:20;5.18;;;4.35;;
33170;SDS011;19535;50.672;4.206;2023-12-20T01:49:48;4.28;;;3.88;;
33170;SDS011;19535;50.672;4.206;2023-12-20T01:52:16;4.50;;;4.10;;
33170;SDS011;19535;50.672;4.206;2023-12-20T01:54:43;4.05;;;3.60;;
33170;SDS011;19535;50.672;4.206;2023-12-20T01:57:10;4.63;;;4.07;;
33170;SDS011;19535;50.672;4.206;2023-12-20T01:59:38;4.20;;;3.58;;
33170;SDS011;19535;50.672;4.206;2023-12-20T02:02:06;3.38;;;3.08;;
33170;SDS011;19535;50.672;4.206;2023-12-20T02:04:34;4.00;;;3.60;;
33170;SDS011;19535;50.672;4.206;2023-12-20T02:07:02;4.43;;;3.65;;
33170;SDS011;19535;50.672;4.206;2023-12-20T02:09:29;4.75;;;3.97;;
33170;SDS011;19535;50.672;4.206;2023-12-20T02:11:56;4.60;;;3.88;;
33170;SDS011;19535;50.672;4.206;2023-12-20T02:14:23;3.67;;;3.33;;
33170;SDS011;19535;50.672;4.206;2023-12-20T02:16:50;5.35;;;3.83;;
33170;SDS011;19535;50.672;4.206;2023-12-20T02:19:17;4.43;;;3.40;;
33170;SDS011;19535;50.672;4.206;2023-12-20T02:21:44;4.63;;;4.07;;
33170;SDS011;19535;50.672;4.206;2023-12-20T02:24:11;4.00;;;3.25;;
33170;SDS011;19535;50.672;4.206;2023-12-20T02:26:38;4.07;;;3.22;;
33170;SDS011;19535;50.672;4.206;2023-12-20T02:29:07;3.83;;;3.20;;
33170;SDS011;19535;50.672;4.206;2023-12-20T02:31:34;3.63;;;3.10;;
33170;SDS011;19535;50.672;4.206;2023-12-20T02:34:01;4.53;;;3.20;;
33170;SDS011;19535;50.672;4.206;2023-12-20T02:36:28;4.50;;;2.92;;
33170;SDS011;19535;50.672;4.206;2023-12-20T02:38:55;4.07;;;3.22;;
33170;SDS011;19535;50.672;4.206;2023-12-20T02:41:22;3.10;;;2.80;;
33170;SDS011;19535;50.672;4.206;2023-12-20T02:43:50;4.10;;;3.20;;
33170;SDS011;19535;50.672;4.206;2023-12-20T02:46:17;4.13;;;3.03;;
33170;SDS011;19535;50.672;4.206;2023-12-20T02:48:45;4.55;;;3.17;;
33170;SDS011;19535;50.672;4.206;2023-12-20T02:51:13;2.90;;;2.50;;
33170;SDS011;19535;50.672;4.206;2023-12-20T02:53:40;2.97;;;2.58;;
33170;SDS011;19535;50.672;4.206;2023-12-20T02:56:07;3.53;;;2.60;;
33170;SDS011;19535;50.672;4.206;2023-12-20T02:58:35;3.78;;;2.97;;
33170;SDS011;19535;50.672;4.206;2023-12-20T03:01:01;3.10;;;2.47;;
33170;SDS011;19535;50.672;4.206;2023-12-20T03:03:29;3.00;;;2.70;;
33170;SDS011;19535;50.672;4.206;2023-12-20T03:05:55;3.90;;;2.70;;
33170;SDS011;19535;50.672;4.206;2023-12-20T03:08:22;3.70;;;2.70;;
33170;SDS011;19535;50.672;4.206;2023-12-20T03:10:51;3.25;;;2.47;;
33170;SDS011;19535;50.672;4.206;2023-12-20T03:13:19;3.22;;;2.70;;
33170;SDS011;19535;50.672;4.206;2023-12-20T03:15:46;2.78;;;2.40;;
33170;SDS011;19535;50.672;4.206;2023-12-20T03:18:13;4.10;;;2.40;;
33170;SDS011;19535;50.672;4.206;2023-12-20T03:20:40;3.40;;;2.22;;
33170;SDS011;19535;50.672;4.206;2023-12-20T03:23:07;4.10;;;2.30;;
33170;SDS011;19535;50.672;4.206;2023-12-20T03:25:35;3.20;;;2.40;;
33170;SDS011;19535;50.672;4.206;2023-12-20T03:28:01;3.17;;;2.25;;
33170;SDS011;19535;50.672;4.206;2023-12-20T03:30:28;2.92;;;2.20;;
33170;SDS011;19535;50.672;4.206;2023-12-20T03:32:55;2.30;;;2.10;;
33170;SDS011;19535;50.672;4.206;2023-12-20T03:35:22;2.40;;;2.20;;
33170;SDS011;19535;50.672;4.206;2023-12-20T03:37:49;2.88;;;2.20;;
33170;SDS011;19535;50.672;4.206;2023-12-20T03:40:16;2.90;;;2.38;;
33170;SDS011;19535;50.672;4.206;2023-12-20T03:42:43;2.67;;;1.95;;
33170;SDS011;19535;50.672;4.206;2023-12-20T03:45:10;3.08;;;2.17;;
33170;SDS011;19535;50.672;4.206;2023-12-20T03:47:37;3.05;;;1.63;;
33170;SDS011;19535;50.672;4.206;2023-12-20T03:50:04;4.28;;;1.92;;
33170;SDS011;19535;50.672;4.206;2023-12-20T03:52:32;2.83;;;1.75;;
33170;SDS011;19535;50.672;4.206;2023-12-20T03:54:58;2.50;;;1.90;;
33170;SDS011;19535;50.672;4.206;2023-12-20T03:57:26;2.63;;;2.00;;
33170;SDS011;19535;50.672;4.206;2023-12-20T03:59:53;2.85;;;1.90;;
33170;SDS011;19535;50.672;4.206;2023-12-20T04:02:20;1.80;;;1.63;;
33170;SDS011;19535;50.672;4.206;2023-12-20T04:04:47;2.90;;;1.88;;
33170;SDS011;19535;50.672;4.206;2023-12-20T04:07:14;2.78;;;1.92;;
33170;SDS011;19535;50.672;4.206;2023-12-20T04:09:41;2.88;;;1.98;;
33170;SDS011;19535;50.672;4.206;2023-12-20T04:12:08;3.45;;;1.70;;
33170;SDS011;19535;50.672;4.206;2023-12-20T04:14:35;2.75;;;1.90;;
33170;SDS011;19535;50.672;4.206;2023-12-20T04:17:02;3.05;;;2.00;;
33170;SDS011;19535;50.672;4.206;2023-12-20T04:19:29;3.97;;;2.17;;
33170;SDS011;19535;50.672;4.206;2023-12-20T04:21:56;3.88;;;1.65;;
33170;SDS011;19535;50.672;4.206;2023-12-20T04:24:23;2.42;;;1.70;;
33170;SDS011;19535;50.672;4.206;2023-12-20T04:26:50;2.30;;;1.90;;
33170;SDS011;19535;50.672;4.206;2023-12-20T04:29:17;3.10;;;2.00;;
33170;SDS011;19535;50.672;4.206;2023-12-20T04:31:44;2.15;;;1.50;;
33170;SDS011;19535;50.672;4.206;2023-12-20T04:34:11;2.90;;;1.90;;
33170;SDS011;19535;50.672;4.206;2023-12-20T04:36:38;1.63;;;1.30;;
33170;SDS011;19535;50.672;4.206;2023-12-20T04:39:05;2.17;;;1.45;;
33170;SDS011;19535;50.672;4.206;2023-12-20T04:41:31;2.20;;;1.58;;
33170;SDS011;19535;50.672;4.206;2023-12-20T04:43:58;2.58;;;1.90;;
33170;SDS011;19535;50.672;4.206;2023-12-20T04:46:26;3.20;;;1.85;;
33170;SDS011;19535;50.672;4.206;2023-12-20T04:48:53;2.00;;;1.73;;
33170;SDS011;19535;50.672;4.206;2023-12-20T04:51:20;2.05;;;1.58;;
33170;SDS011;19535;50.672;4.206;2023-12-20T04:53:48;3.33;;;1.90;;
33170;SDS011;19535;50.672;4.206;2023-12-20T04:56:15;1.80;;;1.50;;
33170;SDS011;19535;50.672;4.206;2023-12-20T04:58:42;3.10;;;1.75;;
33170;SDS011;19535;50.672;4.206;2023-12-20T05:01:09;2.15;;;1.52;;
33170;SDS011;19535;50.672;4.206;2023-12-20T05:03:36;2.25;;;1.40;;
33170;SDS011;19535;50.672;4.206;2023-12-20T05:06:03;1.60;;;1.33;;
33170;SDS011;19535;50.672;4.206;2023-12-20T05:08:30;3.33;;;1.67;;
33170;SDS011;19535;50.672;4.206;2023-12-20T05:10:57;2.22;;;1.40;;
33170;SDS011;19535;50.672;4.206;2023-12-20T05:13:24;1.75;;;1.50;;
33170;SDS011;19535;50.672;4.206;2023-12-20T05:16:07;1.65;;;1.30;;
33170;SDS011;19535;50.672;4.206;2023-12-20T05:18:35;1.67;;;1.15;;
33170;SDS011;19535;50.672;4.206;2023-12-20T05:21:02;2.03;;;1.33;;
33170;SDS011;19535;50.672;4.206;2023-12-20T05:23:30;2.25;;;1.30;;
33170;SDS011;19535;50.672;4.206;2023-12-20T05:25:56;3.55;;;1.30;;
33170;SDS011;19535;50.672;4.206;2023-12-20T05:28:25;2.72;;;1.42;;
33170;SDS011;19535;50.672;4.206;2023-12-20T05:30:52;2.60;;;1.52;;
33170;SDS011;19535;50.672;4.206;2023-12-20T05:33:20;3.17;;;1.65;;
33170;SDS011;19535;50.672;4.206;2023-12-20T05:35:47;3.20;;;1.30;;
33170;SDS011;19535;50.672;4.206;2023-12-20T05:38:14;2.60;;;1.55;;
33170;SDS011;19535;50.672;4.206;2023-12-20T05:40:40;2.88;;;1.58;;
33170;SDS011;19535;50.672;4.206;2023-12-20T05:43:07;1.73;;;1.17;;
33170;SDS011;19535;50.672;4.206;2023-12-20T05:45:34;2.45;;;1.40;;
33170;SDS011;19535;50.672;4.206;2023-12-20T05:48:01;2.42;;;1.40;;
33170;SDS011;19535;50.672;4.206;2023-12-20T05:50:29;1.63;;;1.20;;
33170;SDS011;19535;50.672;4.206;2023-12-20T05:52:56;2.17;;;1.50;;
33170;SDS011;19535;50.672;4.206;2023-12-20T05:55:23;2.05;;;1.13;;
33170;SDS011;19535;50.672;4.206;2023-12-20T05:57:50;2.42;;;1.30;;
33170;SDS011;19535;50.672;4.206;2023-12-20T06:00:17;2.70;;;1.52;;
33170;SDS011;19535;50.672;4.206;2023-12-20T06:02:45;1.90;;;1.35;;
33170;SDS011;19535;50.672;4.206;2023-12-20T06:05:12;2.72;;;1.30;;
33170;SDS011;19535;50.672;4.206;2023-12-20T06:07:39;2.78;;;1.40;;
33170;SDS011;19535;50.672;4.206;2023-12-20T06:10:06;3.33;;;1.52;;
33170;SDS011;19535;50.672;4.206;2023-12-20T06:12:33;1.50;;;1.13;;
33170;SDS011;19535;50.672;4.206;2023-12-20T06:15:02;3.40;;;1.23;;
33170;SDS011;19535;50.672;4.206;2023-12-20T06:17:29;0.98;;;0.93;;
33170;SDS011;19535;50.672;4.206;2023-12-20T06:19:57;1.80;;;1.00;;
33170;SDS011;19535;50.672;4.206;2023-12-20T06:22:25;1.92;;;1.20;;
33170;SDS011;19535;50.672;4.206;2023-12-20T06:24:52;1.55;;;1.10;;
33170;SDS011;19535;50.672;4.206;2023-12-20T06:27:19;3.08;;;1.40;;
33170;SDS011;19535;50.672;4.206;2023-12-20T06:29:46;2.10;;;1.17;;
33170;SDS011;19535;50.672;4.206;2023-12-20T06:32:12;1.83;;;1.15;;
33170;SDS011;19535;50.672;4.206;2023-12-20T06:34:39;2.05;;;1.40;;
33170;SDS011;19535;50.672;4.206;2023-12-20T06:37:06;1.83;;;1.20;;
33170;SDS011;19535;50.672;4.206;2023-12-20T06:39:33;2.17;;;1.20;;
33170;SDS011;19535;50.672;4.206;2023-12-20T06:42:01;2.42;;;1.35;;
33170;SDS011;19535;50.672;4.206;2023-12-20T06:44:28;1.58;;;1.20;;
33170;SDS011;19535;50.672;4.206;2023-12-20T06:46:55;1.90;;;1.08;;
33170;SDS011;19535;50.672;4.206;2023-12-20T06:49:22;2.35;;;1.00;;
33170;SDS011;19535;50.672;4.206;2023-12-20T06:51:49;2.35;;;1.38;;
33170;SDS011;19535;50.672;4.206;2023-12-20T06:54:16;2.42;;;1.50;;
33170;SDS011;19535;50.672;4.206;2023-12-20T06:56:43;2.55;;;1.42;;
33170;SDS011;19535;50.672;4.206;2023-12-20T06:59:10;2.65;;;1.35;;
33170;SDS011;19535;50.672;4.206;2023-12-20T07:01:37;1.80;;;1.30;;
33170;SDS011;19535;50.672;4.206;2023-12-20T07:04:04;2.10;;;1.25;;
33170;SDS011;19535;50.672;4.206;2023-12-20T07:06:31;3.33;;;1.52;;
33170;SDS011;19535;50.672;4.206;2023-12-20T07:08:58;2.20;;;1.20;;
33170;SDS011;19535;50.672;4.206;2023-12-20T07:11:25;1.27;;;1.00;;
33170;SDS011;19535;50.672;4.206;2023-12-20T07:13:52;3.13;;;1.55;;
33170;SDS011;19535;50.672;4.206;2023-12-20T07:16:20;3.75;;;1.20;;
33170;SDS011;19535;50.672;4.206;2023-12-20T07:18:49;1.70;;;1.20;;
33170;SDS011;19535;50.672;4.206;2023-12-20T07:21:16;2.38;;;1.20;;
33170;SDS011;19535;50.672;4.206;2023-12-20T07:23:43;5.32;;;1.38;;
33170;SDS011;19535;50.672;4.206;2023-12-20T07:26:10;3.25;;;1.45;;
33170;SDS011;19535;50.672;4.206;2023-12-20T07:28:37;4.40;;;1.60;;
33170;SDS011;19535;50.672;4.206;2023-12-20T07:31:04;4.07;;;1.42;;
33170;SDS011;19535;50.672;4.206;2023-12-20T07:33:31;3.47;;;1.48;;
33170;SDS011;19535;50.672;4.206;2023-12-20T07:36:05;3.50;;;1.33;;
33170;SDS011;19535;50.672;4.206;2023-12-20T07:38:32;4.45;;;1.63;;
33170;SDS011;19535;50.672;4.206;2023-12-20T07:41:03;2.45;;;1.50;;
33170;SDS011;19535;50.672;4.206;2023-12-20T07:43:30;2.63;;;1.40;;
33170;SDS011;19535;50.672;4.206;2023-12-20T07:45:57;2.80;;;1.30;;
33170;SDS011;19535;50.672;4.206;2023-12-20T07:48:26;2.53;;;1.30;;
33170;SDS011;19535;50.672;4.206;2023-12-20T07:50:54;3.20;;;1.58;;
33170;SDS011;19535;50.672;4.206;2023-12-20T07:53:20;4.53;;;2.53;;
33170;SDS011;19535;50.672;4.206;2023-12-20T07:55:48;2.08;;;1.27;;
33170;SDS011;19535;50.672;4.206;2023-12-20T07:58:15;2.60;;;1.27;;
33170;SDS011;19535;50.672;4.206;2023-12-20T08:00:41;1.67;;;1.30;;
33170;SDS011;19535;50.672;4.206;2023-12-20T08:03:08;2.22;;;1.40;;
33170;SDS011;19535;50.672;4.206;2023-12-20T08:05:35;3.33;;;1.10;;
33170;SDS011;19535;50.672;4.206;2023-12-20T08:08:03;2.13;;;1.20;;
33170;SDS011;19535;50.672;4.206;2023-12-20T08:10:30;1.73;;;1.30;;
33170;SDS011;19535;50.672;4.206;2023-12-20T08:12:57;4.03;;;1.40;;
33170;SDS011;19535;50.672;4.206;2023-12-20T08:15:24;3.45;;;1.40;;
33170;SDS011;19535;50.672;4.206;2023-12-20T08:17:51;3.00;;;1.38;;
33170;SDS011;19535;50.672;4.206;2023-12-20T08:20:18;2.97;;;1.48;;
33170;SDS011;19535;50.672;4.206;2023-12-20T08:22:55;3.13;;;1.42;;
33170;SDS011;19535;50.672;4.206;2023-12-20T08:25:22;2.60;;;1.50;;
33170;SDS011;19535;50.672;4.206;2023-12-20T08:27:49;6.00;;;1.40;;
33170;SDS011;19535;50.672;4.206;2023-12-20T08:30:16;4.63;;;1.40;;
33170;SDS011;19535;50.672;4.206;2023-12-20T08:32:49;6.72;;;1.92;;
33170;SDS011;19535;50.672;4.206;2023-12-20T08:37:44;2.80;;;1.33;;
33170;SDS011;19535;50.672;4.206;2023-12-20T08:40:12;5.35;;;1.45;;
33170;SDS011;19535;50.672;4.206;2023-12-20T08:42:39;5.50;;;1.40;;
33170;SDS011;19535;50.672;4.206;2023-12-20T08:45:06;4.32;;;1.50;;
33170;SDS011;19535;50.672;4.206;2023-12-20T08:47:36;2.78;;;1.50;;
33170;SDS011;19535;50.672;4.206;2023-12-20T08:50:03;1.55;;;1.15;;
33170;SDS011;19535;50.672;4.206;2023-12-20T08:52:30;2.92;;;1.50;;
33170;SDS011;19535;50.672;4.206;2023-12-20T08:54:57;3.83;;;1.23;;
33170;SDS011;19535;50.672;4.206;2023-12-20T08:57:24;2.08;;;1.20;;
33170;SDS011;19535;50.672;4.206;2023-12-20T08:59:51;2.80;;;1.60;;
33170;SDS011;19535;50.672;4.206;2023-12-20T09:06:01;2.05;;;1.10;;
33170;SDS011;19535;50.672;4.206;2023-12-20T09:08:29;2.55;;;1.50;;
33170;SDS011;19535;50.672;4.206;2023-12-20T09:10:56;1.73;;;1.20;;
33170;SDS011;19535;50.672;4.206;2023-12-20T09:13:23;2.33;;;1.30;;
33170;SDS011;19535;50.672;4.206;2023-12-20T09:15:55;3.40;;;1.20;;
33170;SDS011;19535;50.672;4.206;2023-12-20T09:18:22;5.13;;;1.50;;
33170;SDS011;19535;50.672;4.206;2023-12-20T09:20:49;3.22;;;1.33;;
33170;SDS011;19535;50.672;4.206;2023-12-20T09:23:16;4.45;;;1.40;;
33170;SDS011;19535;50.672;4.206;2023-12-20T09:25:44;2.55;;;1.23;;
33170;SDS011;19535;50.672;4.206;2023-12-20T09:28:11;2.35;;;1.30;;
33170;SDS011;19535;50.672;4.206;2023-12-20T09:30:39;3.08;;;1.42;;
33170;SDS011;19535;50.672;4.206;2023-12-20T09:33:07;2.90;;;1.17;;
33170;SDS011;19535;50.672;4.206;2023-12-20T09:35:34;2.83;;;1.58;;
33170;SDS011;19535;50.672;4.206;2023-12-20T09:38:02;4.00;;;1.60;;
33170;SDS011;19535;50.672;4.206;2023-12-20T09:40:29;2.50;;;1.38;;
33170;SDS011;19535;50.672;4.206;2023-12-20T09:42:58;2.73;;;1.73;;
33170;SDS011;19535;50.672;4.206;2023-12-20T09:45:30;2.50;;;1.48;;
33170;SDS011;19535;50.672;4.206;2023-12-20T09:47:58;2.25;;;1.55;;
33170;SDS011;19535;50.672;4.206;2023-12-20T09:50:26;3.58;;;1.38;;
33170;SDS011;19535;50.672;4.206;2023-12-20T09:52:53;2.90;;;1.48;;
33170;SDS011;19535;50.672;4.206;2023-12-20T09:55:22;4.70;;;1.38;;
33170;SDS011;19535;50.672;4.206;2023-12-20T09:57:52;2.58;;;1.40;;
33170;SDS011;19535;50.672;4.206;2023-12-20T10:00:19;4.72;;;1.60;;
33170;SDS011;19535;50.672;4.206;2023-12-20T10:03:04;3.15;;;1.58;;
33170;SDS011;19535;50.672;4.206;2023-12-20T10:05:33;3.22;;;1.60;;
33170;SDS011;19535;50.672;4.206;2023-12-20T10:08:01;3.38;;;1.55;;
33170;SDS011;19535;50.672;4.206;2023-12-20T10:10:29;2.83;;;1.60;;
33170;SDS011;19535;50.672;4.206;2023-12-20T10:13:11;6.72;;;2.22;;
33170;SDS011;19535;50.672;4.206;2023-12-20T10:15:38;2.75;;;1.60;;
33170;SDS011;19535;50.672;4.206;2023-12-20T10:18:08;2.45;;;1.25;;
33170;SDS011;19535;50.672;4.206;2023-12-20T10:20:35;3.38;;;1.90;;
33170;SDS011;19535;50.672;4.206;2023-12-20T10:23:03;3.90;;;1.73;;
33170;SDS011;19535;50.672;4.206;2023-12-20T10:25:30;4.32;;;1.52;;
33170;SDS011;19535;50.672;4.206;2023-12-20T10:28:09;2.95;;;1.50;;
33170;SDS011;19535;50.672;4.206;2023-12-20T10:30:38;2.70;;;1.58;;
33170;SDS011;19535;50.672;4.206;2023-12-20T10:33:06;2.22;;;1.50;;
33170;SDS011;19535;50.672;4.206;2023-12-20T10:35:34;5.25;;;2.15;;
33170;SDS011;19535;50.672;4.206;2023-12-20T10:38:05;3.40;;;1.60;;
33170;SDS011;19535;50.672;4.206;2023-12-20T10:40:36;2.53;;;1.48;;
33170;SDS011;19535;50.672;4.206;2023-12-20T10:43:04;2.83;;;1.88;;
33170;SDS011;19535;50.672;4.206;2023-12-20T10:45:32;2.67;;;1.40;;
33170;SDS011;19535;50.672;4.206;2023-12-20T10:47:59;4.85;;;1.80;;
33170;SDS011;19535;50.672;4.206;2023-12-20T10:50:27;1.63;;;1.20;;
33170;SDS011;19535;50.672;4.206;2023-12-20T10:52:57;3.75;;;1.88;;
33170;SDS011;19535;50.672;4.206;2023-12-20T10:55:25;4.47;;;1.90;;
33170;SDS011;19535;50.672;4.206;2023-12-20T10:58:09;1.95;;;1.35;;
33170;SDS011;19535;50.672;4.206;2023-12-20T11:00:40;4.40;;;1.63;;
33170;SDS011;19535;50.672;4.206;2023-12-20T11:03:08;3.10;;;1.70;;
33170;SDS011;19535;50.672;4.206;2023-12-20T11:05:50;1.98;;;1.42;;
33170;SDS011;19535;50.672;4.206;2023-12-20T11:11:21;4.97;;;1.98;;
33170;SDS011;19535;50.672;4.206;2023-12-20T11:17:09;2.33;;;1.30;;
33170;SDS011;19535;50.672;4.206;2023-12-20T11:20:33;1.85;;;1.40;;
33170;SDS011;19535;50.672;4.206;2023-12-20T11:22:34;3.42;;;1.40;;
33170;SDS011;19535;50.672;4.206;2023-12-20T11:25:07;2.85;;;1.42;;
33170;SDS011;19535;50.672;4.206;2023-12-20T11:27:41;3.05;;;1.73;;
33170;SDS011;19535;50.672;4.206;2023-12-20T11:30:10;2.30;;;1.30;;
33170;SDS011;19535;50.672;4.206;2023-12-20T11:32:38;2.22;;;1.52;;
33170;SDS011;19535;50.672;4.206;2023-12-20T11:37:40;2.60;;;1.50;;
33170;SDS011;19535;50.672;4.206;2023-12-20T11:40:12;3.15;;;1.63;;
33170;SDS011;19535;50.672;4.206;2023-12-20T11:42:43;1.95;;;1.30;;
33170;SDS011;19535;50.672;4.206;2023-12-20T11:45:18;4.18;;;1.42;;
33170;SDS011;19535;50.672;4.206;2023-12-20T11:47:49;3.30;;;1.45;;
33170;SDS011;19535;50.672;4.206;2023-12-20T11:50:18;1.70;;;1.27;;
33170;SDS011;19535;50.672;4.206;2023-12-20T11:52:46;2.42;;;1.55;;
33170;SDS011;19535;50.672;4.206;2023-12-20T11:55:17;2.55;;;1.20;;
33170;SDS011;19535;50.672;4.206;2023-12-20T11:57:44;2.28;;;1.50;;
33170;SDS011;19535;50.672;4.206;2023-12-20T12:00:13;2.70;;;1.42;;
33170;SDS011;19535;50.672;4.206;2023-12-20T12:02:40;1.90;;;1.27;;
33170;SDS011;19535;50.672;4.206;2023-12-20T12:05:07;2.75;;;1.48;;
33170;SDS011;19535;50.672;4.206;2023-12-20T12:07:35;1.98;;;1.33;;
33170;SDS011;19535;50.672;4.206;2023-12-20T12:10:02;3.03;;;1.52;;
33170;SDS011;19535;50.672;4.206;2023-12-20T12:12:32;2.72;;;1.40;;
33170;SDS011;19535;50.672;4.206;2023-12-20T12:14:59;2.35;;;1.30;;
33170;SDS011;19535;50.672;4.206;2023-12-20T12:17:26;2.90;;;1.50;;
33170;SDS011;19535;50.672;4.206;2023-12-20T12:20:01;3.35;;;1.50;;
33170;SDS011;19535;50.672;4.206;2023-12-20T12:22:32;2.25;;;1.50;;
33170;SDS011;19535;50.672;4.206;2023-12-20T12:24:59;4.28;;;1.48;;
33170;SDS011;19535;50.672;4.206;2023-12-20T12:27:36;2.42;;;1.58;;
33170;SDS011;19535;50.672;4.206;2023-12-20T12:30:05;3.58;;;1.40;;
33170;SDS011;19535;50.672;4.206;2023-12-20T12:32:36;1.90;;;1.17;;
33170;SDS011;19535;50.672;4.206;2023-12-20T12:35:03;2.50;;;1.45;;
33170;SDS011;19535;50.672;4.206;2023-12-20T12:40:00;2.65;;;1.30;;
33170;SDS011;19535;50.672;4.206;2023-12-20T12:42:27;1.80;;;1.20;;
33170;SDS011;19535;50.672;4.206;2023-12-20T12:44:55;2.25;;;1.45;;
33170;SDS011;19535;50.672;4.206;2023-12-20T12:47:22;2.45;;;1.55;;
33170;SDS011;19535;50.672;4.206;2023-12-20T12:49:49;1.80;;;1.27;;
33170;SDS011;19535;50.672;4.206;2023-12-20T12:52:18;2.58;;;1.30;;
33170;SDS011;19535;50.672;4.206;2023-12-20T12:54:45;1.92;;;1.42;;
33170;SDS011;19535;50.672;4.206;2023-12-20T12:57:13;2.47;;;1.50;;
33170;SDS011;19535;50.672;4.206;2023-12-20T12:59:42;2.13;;;1.20;;
33170;SDS011;19535;50.672;4.206;2023-12-20T13:02:10;3.08;;;1.35;;
33170;SDS011;19535;50.672;4.206;2023-12-20T13:04:37;2.65;;;1.40;;
33170;SDS011;19535;50.672;4.206;2023-12-20T13:07:04;2.50;;;1.40;;
33170;SDS011;19535;50.672;4.206;2023-12-20T13:09:32;3.33;;;1.40;;
33170;SDS011;19535;50.672;4.206;2023-12-20T13:11:59;1.85;;;1.08;;
33170;SDS011;19535;50.672;4.206;2023-12-20T13:14:29;2.35;;;1.20;;
33170;SDS011;19535;50.672;4.206;2023-12-20T13:16:58;2.70;;;1.70;;
33170;SDS011;19535;50.672;4.206;2023-12-20T13:19:25;2.72;;;1.60;;
33170;SDS011;19535;50.672;4.206;2023-12-20T13:21:53;2.40;;;1.42;;
33170;SDS011;19535;50.672;4.206;2023-12-20T13:24:20;1.65;;;1.20;;
33170;SDS011;19535;50.672;4.206;2023-12-20T13:26:47;2.80;;;1.50;;
33170;SDS011;19535;50.672;4.206;2023-12-20T13:29:14;3.22;;;1.45;;
33170;SDS011;19535;50.672;4.206;2023-12-20T13:31:41;1.92;;;1.25;;
33170;SDS011;19535;50.672;4.206;2023-12-20T13:34:08;2.22;;;1.45;;
33170;SDS011;19535;50.672;4.206;2023-12-20T13:36:36;2.88;;;1.30;;
33170;SDS011;19535;50.672;4.206;2023-12-20T13:39:03;1.80;;;1.35;;
33170;SDS011;19535;50.672;4.206;2023-12-20T13:41:31;3.15;;;1.25;;
33170;SDS011;19535;50.672;4.206;2023-12-20T13:43:58;2.40;;;1.15;;
33170;SDS011;19535;50.672;4.206;2023-12-20T13:46:25;2.83;;;1.50;;
33170;SDS011;19535;50.672;4.206;2023-12-20T13:48:54;2.67;;;1.77;;
33170;SDS011;19535;50.672;4.206;2023-12-20T13:51:21;2.92;;;1.25;;
33170;SDS011;19535;50.672;4.206;2023-12-20T13:53:48;3.72;;;1.45;;
33170;SDS011;19535;50.672;4.206;2023-12-20T13:56:15;3.33;;;1.50;;
33170;SDS011;19535;50.672;4.206;2023-12-20T13:58:42;2.58;;;1.30;;
33170;SDS011;19535;50.672;4.206;2023-12-20T14:01:09;2.17;;;1.38;;
33170;SDS011;19535;50.672;4.206;2023-12-20T14:03:38;2.60;;;1.48;;
33170;SDS011;19535;50.672;4.206;2023-12-20T14:06:05;2.67;;;1.40;;
33170;SDS011;19535;50.672;4.206;2023-12-20T14:08:33;2.88;;;1.42;;
33170;SDS011;19535;50.672;4.206;2023-12-20T14:11:00;2.90;;;1.60;;
33170;SDS011;19535;50.672;4.206;2023-12-20T14:13:28;2.55;;;1.40;;
33170;SDS011;19535;50.672;4.206;2023-12-20T14:15:55;2.10;;;1.15;;
33170;SDS011;19535;50.672;4.206;2023-12-20T14:18:22;3.40;;;1.60;;
33170;SDS011;19535;50.672;4.206;2023-12-20T14:20:49;2.30;;;1.40;;
33170;SDS011;19535;50.672;4.206;2023-12-20T14:23:17;2.70;;;1.38;;
33170;SDS011;19535;50.672;4.206;2023-12-20T14:25:44;2.83;;;1.60;;
33170;SDS011;19535;50.672;4.206;2023-12-20T14:28:18;3.47;;;1.90;;
33170;SDS011;19535;50.672;4.206;2023-12-20T14:30:46;2.72;;;1.50;;
33170;SDS011;19535;50.672;4.206;2023-12-20T14:33:13;2.42;;;1.25;;
33170;SDS011;19535;50.672;4.206;2023-12-20T14:35:40;2.08;;;1.30;;
33170;SDS011;19535;50.672;4.206;2023-12-20T14:38:11;2.40;;;1.45;;
33170;SDS011;19535;50.672;4.206;2023-12-20T14:40:41;2.17;;;1.50;;
33170;SDS011;19535;50.672;4.206;2023-12-20T14:43:08;2.05;;;1.15;;
33170;SDS011;19535;50.672;4.206;2023-12-20T14:45:35;2.05;;;1.27;;
33170;SDS011;19535;50.672;4.206;2023-12-20T14:48:03;4.28;;;1.83;;
33170;SDS011;19535;50.672;4.206;2023-12-20T14:50:31;2.53;;;1.33;;
33170;SDS011;19535;50.672;4.206;2023-12-20T14:52:58;1.92;;;1.25;;
33170;SDS011;19535;50.672;4.206;2023-12-20T14:55:26;3.17;;;1.40;;
33170;SDS011;19535;50.672;4.206;2023-12-20T14:57:56;2.22;;;1.20;;
33170;SDS011;19535;50.672;4.206;2023-12-20T15:00:24;3.03;;;1.50;;
33170;SDS011;19535;50.672;4.206;2023-12-20T15:02:51;1.90;;;1.45;;
33170;SDS011;19535;50.672;4.206;2023-12-20T15:05:20;2.72;;;1.35;;
33170;SDS011;19535;50.672;4.206;2023-12-20T15:07:47;1.60;;;0.98;;
33170;SDS011;19535;50.672;4.206;2023-12-20T15:10:15;1.60;;;1.00;;